createdAt,value
2023-04-15T00:01:37.283Z,6.50
2023-04-15T00:04:04.900Z,6.10
2023-04-15T00:06:31.868Z,5.55
2023-04-15T00:09:00.283Z,6.90
2023-04-15T00:11:27.272Z,7.95
2023-04-15T00:13:54.467Z,6.55
2023-04-15T00:16:21.477Z,6.00
2023-04-15T00:18:48.337Z,7.40
2023-04-15T00:21:15.190Z,8.85
2023-04-15T00:23:41.987Z,9.07
2023-04-15T00:26:08.742Z,12.48
2023-04-15T00:28:35.547Z,13.27
2023-04-15T00:31:02.431Z,9.75
2023-04-15T00:33:29.222Z,10.85
2023-04-15T00:35:55.968Z,10.38
2023-04-15T00:38:22.795Z,8.02
2023-04-15T00:40:49.557Z,12.15
2023-04-15T00:43:16.555Z,9.45
2023-04-15T00:45:43.528Z,10.98
2023-04-15T00:48:10.421Z,21.52
2023-04-15T00:50:37.233Z,16.75
2023-04-15T00:53:04.005Z,17.25
2023-04-15T00:55:30.758Z,27.70
2023-04-15T00:57:57.806Z,27.67
2023-04-15T01:00:24.604Z,26.52
2023-04-15T01:02:51.671Z,33.95
2023-04-15T01:05:19.541Z,31.42
2023-04-15T01:07:47.871Z,31.10
2023-04-15T01:10:14.736Z,28.67
2023-04-15T01:12:42.131Z,26.48
2023-04-15T01:15:11.064Z,26.27
2023-04-15T01:17:38.185Z,27.30
2023-04-15T01:20:05.997Z,26.85
2023-04-15T01:22:33.390Z,26.67
2023-04-15T01:25:04.790Z,23.98
2023-04-15T01:27:32.257Z,24.60
2023-04-15T01:29:59.034Z,24.35
2023-04-15T01:32:25.859Z,25.60
2023-04-15T01:34:52.631Z,22.85
2023-04-15T01:37:19.443Z,24.35
2023-04-15T01:39:46.374Z,23.65
2023-04-15T01:42:13.217Z,23.42
2023-04-15T01:44:40.452Z,26.00
2023-04-15T01:47:07.244Z,25.67
2023-04-15T01:49:34.220Z,23.65
2023-04-15T01:52:00.972Z,23.38
2023-04-15T01:54:27.812Z,24.05
2023-04-15T01:56:54.573Z,23.50
2023-04-15T01:59:21.293Z,22.90
2023-04-15T02:01:48.098Z,22.90
2023-04-15T02:04:16.911Z,25.08
2023-04-15T02:06:44.079Z,23.02
2023-04-15T02:09:11.043Z,23.48
2023-04-15T02:11:37.876Z,22.35
2023-04-15T02:14:05.782Z,18.90
2023-04-15T02:16:32.797Z,13.65
2023-04-15T02:19:00.695Z,11.77
2023-04-15T02:21:27.845Z,9.77
2023-04-15T02:23:54.627Z,11.65
2023-04-15T02:26:22.423Z,9.93
2023-04-15T02:28:51.391Z,9.73
2023-04-15T02:31:18.355Z,12.68
2023-04-15T02:33:45.374Z,12.18
2023-04-15T02:36:12.468Z,13.48
2023-04-15T02:38:41.356Z,13.82
2023-04-15T02:41:11.841Z,13.95
2023-04-15T02:43:39.992Z,16.48
2023-04-15T02:46:07.170Z,17.83
2023-04-15T02:48:34.386Z,16.80
2023-04-15T02:51:21.385Z,14.75
2023-04-15T02:53:48.992Z,13.98
2023-04-15T02:56:17.215Z,12.57
2023-04-15T02:58:44.999Z,11.95
2023-04-15T03:01:12.160Z,13.50
2023-04-15T03:03:39.126Z,13.02
2023-04-15T03:06:06.685Z,12.73
2023-04-15T03:08:33.517Z,12.13
2023-04-15T03:11:00.955Z,11.55
2023-04-15T03:13:27.759Z,11.15
2023-04-15T03:15:54.639Z,12.05
2023-04-15T03:18:21.717Z,11.30
2023-04-15T03:20:48.485Z,9.52
2023-04-15T03:23:15.520Z,10.85
2023-04-15T03:25:42.385Z,9.65
2023-04-15T03:28:09.152Z,9.10
2023-04-15T03:30:36.057Z,8.85
2023-04-15T03:33:02.881Z,8.25
2023-04-15T03:35:29.783Z,7.88
2023-04-15T03:37:56.599Z,7.75
2023-04-15T03:40:23.387Z,8.07
2023-04-15T03:42:50.150Z,6.93
2023-04-15T03:45:17.062Z,7.45
2023-04-15T03:47:43.988Z,7.93
2023-04-15T03:50:11.169Z,7.88
2023-04-15T03:52:38.153Z,8.15
2023-04-15T03:55:05.351Z,8.15
2023-04-15T03:57:32.130Z,8.02
2023-04-15T03:59:58.940Z,9.20
2023-04-15T04:02:26.035Z,8.18
2023-04-15T04:04:53.006Z,8.75
2023-04-15T04:07:19.915Z,8.93
2023-04-15T04:09:47.410Z,8.45
2023-04-15T04:12:14.459Z,8.30
2023-04-15T04:14:41.243Z,18.02
2023-04-15T04:17:08.310Z,15.55
2023-04-15T04:19:35.229Z,15.52
2023-04-15T04:22:02.239Z,11.23
2023-04-15T04:24:28.973Z,15.00
2023-04-15T04:26:57.282Z,12.60
2023-04-15T04:29:24.306Z,15.73
2023-04-15T04:31:51.266Z,13.55
2023-04-15T04:34:18.135Z,12.70
2023-04-15T04:36:44.933Z,10.35
2023-04-15T04:39:11.841Z,8.90
2023-04-15T04:41:38.640Z,7.05
2023-04-15T04:44:05.469Z,8.10
2023-04-15T04:46:32.226Z,7.68
2023-04-15T04:48:59.023Z,25.35
2023-04-15T04:51:26.373Z,20.35
2023-04-15T04:53:53.178Z,16.02
2023-04-15T04:56:20.019Z,11.25
2023-04-15T04:58:46.898Z,9.63
2023-04-15T05:01:13.793Z,9.32
2023-04-15T05:03:40.706Z,8.15
2023-04-15T05:06:08.818Z,8.30
2023-04-15T05:08:36.123Z,8.30
2023-04-15T05:11:03.539Z,9.52
2023-04-15T05:13:30.338Z,10.38
2023-04-15T05:15:57.269Z,11.65
2023-04-15T05:18:24.300Z,10.05
2023-04-15T05:20:51.128Z,10.20
2023-04-15T05:23:17.873Z,11.55
2023-04-15T05:25:45.152Z,11.20
2023-04-15T05:28:12.556Z,12.85
2023-04-15T05:30:39.825Z,14.82
2023-04-15T05:33:06.587Z,14.88
2023-04-15T05:35:33.402Z,15.80
2023-04-15T05:38:00.596Z,18.48
2023-04-15T05:40:28.052Z,16.13
2023-04-15T05:42:54.902Z,15.60
2023-04-15T05:45:21.714Z,18.20
2023-04-15T05:47:51.004Z,14.68
2023-04-15T05:50:17.919Z,14.45
2023-04-15T05:52:45.905Z,14.07
2023-04-15T05:55:12.776Z,12.23
2023-04-15T05:57:39.575Z,12.45
2023-04-15T06:00:07.048Z,12.52
2023-04-15T06:02:33.972Z,13.35
2023-04-15T06:05:01.400Z,14.35
2023-04-15T06:07:28.294Z,15.13
2023-04-15T06:09:55.188Z,14.45
2023-04-15T06:12:22.045Z,13.70
2023-04-15T06:14:48.882Z,14.60
2023-04-15T06:17:18.539Z,14.55
2023-04-15T06:19:45.448Z,13.57
2023-04-15T06:22:12.249Z,13.38
2023-04-15T06:24:39.008Z,13.27
2023-04-15T06:27:05.898Z,15.32
2023-04-15T06:29:32.741Z,14.52
2023-04-15T06:31:59.614Z,15.07
2023-04-15T06:34:26.460Z,13.25
2023-04-15T06:36:54.664Z,12.05
2023-04-15T06:39:21.419Z,13.43
2023-04-15T06:41:48.216Z,13.90
2023-04-15T06:44:15.109Z,15.45
2023-04-15T06:46:42.038Z,15.38
2023-04-15T06:49:08.831Z,18.83
2023-04-15T06:51:36.298Z,20.27
2023-04-15T06:54:05.961Z,14.57
2023-04-15T06:56:33.626Z,15.48
2023-04-15T06:59:00.905Z,15.73
2023-04-15T07:01:27.856Z,25.70
2023-04-15T07:03:54.844Z,16.73
2023-04-15T07:06:22.240Z,16.13
2023-04-15T07:08:48.973Z,14.60
2023-04-15T07:11:15.859Z,15.02
2023-04-15T07:13:42.667Z,19.60
2023-04-15T07:16:09.477Z,9.85
2023-04-15T07:18:36.334Z,10.10
2023-04-15T07:21:03.251Z,4.40
2023-04-15T07:23:29.975Z,6.90
2023-04-15T07:25:57.430Z,2.60
2023-04-15T07:28:24.311Z,3.28
2023-04-15T07:30:51.215Z,0.90
2023-04-15T07:33:18.055Z,1.30
2023-04-15T07:35:45.371Z,8.40
2023-04-15T07:38:15.065Z,8.93
2023-04-15T07:40:42.424Z,18.63
2023-04-15T07:43:09.901Z,10.52
2023-04-15T07:45:36.738Z,1.10
2023-04-15T07:48:03.883Z,8.32
2023-04-15T07:50:30.823Z,1.52
2023-04-15T07:52:57.710Z,2.20
2023-04-15T07:55:25.359Z,13.40
2023-04-15T07:57:52.970Z,11.77
2023-04-15T08:00:20.169Z,6.53
2023-04-15T08:02:48.500Z,4.22
2023-04-15T08:05:15.905Z,1.45
2023-04-15T08:07:42.651Z,2.67
2023-04-15T08:10:10.089Z,1.83
2023-04-15T08:12:37.254Z,14.25
2023-04-15T08:15:04.502Z,1.52
2023-04-15T08:17:31.432Z,1.73
2023-04-15T08:19:58.257Z,0.93
2023-04-15T08:22:25.412Z,0.80
2023-04-15T08:24:52.204Z,0.70
2023-04-15T08:27:19.748Z,0.70
2023-04-15T08:29:47.230Z,1.90
2023-04-15T08:32:14.097Z,0.77
2023-04-15T08:34:40.962Z,1.52
2023-04-15T08:37:08.256Z,0.70
2023-04-15T08:39:35.232Z,1.30
2023-04-15T08:42:03.566Z,1.17
2023-04-15T08:44:32.085Z,13.43
2023-04-15T08:47:01.380Z,13.48
2023-04-15T08:49:28.654Z,3.00
2023-04-15T08:51:56.750Z,1.58
2023-04-15T08:54:23.608Z,1.55
2023-04-15T08:56:50.445Z,1.00
2023-04-15T08:59:18.016Z,0.77
2023-04-15T09:01:44.823Z,0.70
2023-04-15T09:04:12.616Z,0.73
2023-04-15T09:06:40.184Z,0.63
2023-04-15T09:09:06.915Z,1.20
2023-04-15T09:11:33.800Z,1.25
2023-04-15T09:14:00.523Z,0.40
2023-04-15T09:16:27.556Z,3.22
2023-04-15T09:18:54.496Z,2.13
2023-04-15T09:21:21.392Z,5.40
2023-04-15T09:23:59.132Z,1.65
2023-04-15T09:26:36.285Z,0.68
2023-04-15T09:29:15.121Z,1.75
2023-04-15T09:31:42.580Z,1.33
2023-04-15T09:34:09.362Z,0.60
2023-04-15T09:36:50.943Z,4.72
2023-04-15T09:39:18.069Z,0.40
2023-04-15T09:41:45.181Z,0.50
2023-04-15T09:44:24.757Z,2.38
2023-04-15T09:46:51.537Z,2.37
2023-04-15T09:49:18.488Z,1.05
2023-04-15T09:51:57.649Z,1.05
2023-04-15T09:54:37.972Z,2.30
2023-04-15T09:57:12.273Z,0.60
2023-04-15T09:59:39.063Z,1.25
2023-04-15T10:02:08.725Z,0.50
2023-04-15T10:04:37.112Z,0.50
2023-04-15T10:07:05.312Z,0.40
2023-04-15T10:09:33.575Z,0.65
2023-04-15T10:12:01.280Z,1.15
2023-04-15T10:14:29.320Z,1.20
2023-04-15T10:16:56.478Z,0.68
2023-04-15T10:19:23.379Z,2.45
2023-04-15T10:21:50.285Z,0.98
2023-04-15T10:26:43.901Z,0.60
2023-04-15T10:29:10.725Z,0.73
2023-04-15T10:31:38.451Z,4.03
2023-04-15T10:34:06.618Z,0.68
2023-04-15T10:36:33.931Z,4.15
2023-04-15T10:39:01.419Z,0.47
2023-04-15T10:41:31.337Z,1.40
2023-04-15T10:44:05.035Z,0.90
2023-04-15T10:46:38.680Z,10.05
2023-04-15T10:49:16.359Z,2.88
2023-04-15T10:51:44.820Z,4.07
2023-04-15T10:54:24.259Z,4.30
2023-04-15T10:57:06.648Z,3.83
2023-04-15T10:59:36.208Z,4.85
2023-04-15T11:02:07.360Z,8.38
2023-04-15T11:05:07.404Z,4.18
2023-04-15T11:07:55.742Z,2.50
2023-04-15T11:10:26.015Z,1.77
2023-04-15T11:12:54.216Z,8.25
2023-04-15T11:15:33.979Z,0.98
2023-04-15T11:18:09.939Z,0.50
2023-04-15T11:20:37.242Z,4.38
2023-04-15T11:23:14.730Z,2.63
2023-04-15T11:25:43.307Z,2.95
2023-04-15T11:28:10.997Z,2.42
2023-04-15T11:30:38.055Z,2.35
2023-04-15T11:33:09.375Z,2.70
2023-04-15T11:35:36.387Z,1.90
2023-04-15T11:38:04.217Z,4.68
2023-04-15T11:40:31.557Z,3.80
2023-04-15T11:43:24.399Z,1.90
2023-04-15T11:45:56.455Z,2.60
2023-04-15T11:48:27.527Z,0.98
2023-04-15T11:50:55.543Z,0.50
2023-04-15T11:53:22.679Z,1.10
2023-04-15T11:55:53.526Z,7.05
2023-04-15T11:58:22.455Z,6.28
2023-04-15T12:00:58.894Z,1.17
2023-04-15T12:03:30.528Z,1.90
2023-04-15T12:06:21.319Z,1.05
2023-04-15T12:11:38.326Z,0.63
2023-04-15T12:14:16.930Z,1.73
2023-04-15T12:16:48.719Z,4.38
2023-04-15T12:19:41.873Z,4.38
2023-04-15T12:22:15.286Z,2.65
2023-04-15T12:24:44.306Z,1.40
2023-04-15T12:27:15.173Z,4.13
2023-04-15T12:29:43.206Z,3.63
2023-04-15T12:32:14.163Z,3.20
2023-04-15T12:34:50.209Z,6.03
2023-04-15T12:37:17.231Z,4.32
2023-04-15T12:39:45.263Z,4.53
2023-04-15T12:42:12.175Z,1.30
2023-04-15T12:44:39.273Z,2.05
2023-04-15T12:47:06.629Z,3.38
2023-04-15T12:49:33.661Z,5.22
2023-04-15T12:52:01.311Z,7.43
2023-04-15T12:54:28.919Z,4.28
2023-04-15T12:56:55.859Z,5.00
2023-04-15T12:59:24.392Z,3.03
2023-04-15T13:01:52.385Z,2.33
2023-04-15T13:04:19.734Z,1.85
2023-04-15T13:06:46.544Z,0.90
2023-04-15T13:09:13.347Z,0.85
2023-04-15T13:11:40.116Z,0.60
2023-04-15T13:14:08.219Z,0.70
2023-04-15T13:16:35.175Z,0.57
2023-04-15T13:19:02.547Z,1.50
2023-04-15T13:21:29.381Z,1.05
2023-04-15T13:23:56.230Z,0.80
2023-04-15T13:26:23.214Z,0.73
2023-04-15T13:28:50.049Z,0.50
2023-04-15T13:31:17.142Z,0.60
2023-04-15T13:33:43.942Z,1.10
2023-04-15T13:36:10.878Z,1.55
2023-04-15T13:38:37.640Z,1.60
2023-04-15T13:41:04.455Z,2.65
2023-04-15T13:43:33.710Z,1.95
2023-04-15T13:46:00.637Z,3.30
2023-04-15T13:48:28.177Z,1.17
2023-04-15T13:50:55.029Z,1.20
2023-04-15T13:53:21.772Z,0.40
2023-04-15T13:56:02.926Z,1.45
2023-04-15T13:58:29.791Z,1.02
2023-04-15T14:00:56.846Z,0.63
2023-04-15T14:03:23.757Z,0.85
2023-04-15T14:05:55.885Z,0.95
2023-04-15T14:08:23.182Z,5.82
2023-04-15T14:10:50.096Z,1.90
2023-04-15T14:13:16.952Z,1.25
2023-04-15T14:15:43.747Z,1.23
2023-04-15T14:18:10.549Z,2.90
2023-04-15T14:20:37.371Z,1.92
2023-04-15T14:23:04.160Z,1.88
2023-04-15T14:25:34.046Z,0.98
2023-04-15T14:28:01.563Z,3.80
2023-04-15T14:30:28.398Z,1.05
2023-04-15T14:32:55.336Z,1.27
2023-04-15T14:35:22.128Z,1.67
2023-04-15T14:37:48.901Z,1.58
2023-04-15T14:40:15.684Z,1.23
2023-04-15T14:42:42.491Z,3.28
2023-04-15T14:45:10.050Z,2.22
2023-04-15T14:47:36.925Z,4.28
2023-04-15T14:50:04.123Z,1.67
2023-04-15T14:52:32.989Z,1.05
2023-04-15T14:54:59.890Z,1.70
2023-04-15T14:57:26.658Z,0.80
2023-04-15T14:59:56.602Z,1.15
2023-04-15T15:02:37.221Z,2.03
2023-04-15T15:05:06.207Z,1.45
2023-04-15T15:07:33.187Z,2.60
2023-04-15T15:09:59.961Z,3.10
2023-04-15T15:12:26.789Z,1.92
2023-04-15T15:14:54.675Z,4.80
2023-04-15T15:17:21.756Z,2.72
2023-04-15T15:19:48.724Z,3.67
2023-04-15T15:22:15.685Z,2.65
2023-04-15T15:24:42.459Z,2.95
2023-04-15T15:27:09.607Z,5.90
2023-04-15T15:29:37.443Z,3.20
2023-04-15T15:32:04.271Z,5.97
2023-04-15T15:34:31.032Z,11.30
2023-04-15T15:36:57.935Z,8.70
2023-04-15T15:39:24.711Z,9.02
2023-04-15T15:41:51.486Z,13.45
2023-04-15T15:44:18.304Z,5.35
2023-04-15T15:46:45.238Z,6.95
2023-04-15T15:49:11.999Z,10.82
2023-04-15T15:51:38.846Z,12.18
2023-04-15T15:54:05.948Z,9.73
2023-04-15T15:56:33.260Z,13.80
2023-04-15T15:59:00.074Z,8.45
2023-04-15T16:01:26.913Z,13.57
2023-04-15T16:03:53.971Z,11.55
2023-04-15T16:06:21.140Z,7.70
2023-04-15T16:08:47.919Z,13.77
2023-04-15T16:11:14.864Z,20.90
2023-04-15T16:13:41.798Z,12.50
2023-04-15T16:16:08.674Z,11.30
2023-04-15T16:18:35.583Z,6.85
2023-04-15T16:21:02.409Z,7.93
2023-04-15T16:23:29.235Z,5.15
2023-04-15T16:25:56.145Z,6.13
2023-04-15T16:28:26.897Z,13.43
2023-04-15T16:30:54.319Z,12.65
2023-04-15T16:33:21.118Z,13.75
2023-04-15T16:35:47.905Z,7.75
2023-04-15T16:38:14.702Z,17.52
2023-04-15T16:40:41.559Z,13.43
2023-04-15T16:43:11.153Z,22.70
2023-04-15T16:45:38.183Z,33.92
2023-04-15T16:48:05.193Z,17.02
2023-04-15T16:50:32.061Z,11.40
2023-04-15T16:52:58.800Z,22.17
2023-04-15T16:55:25.722Z,20.15
2023-04-15T16:58:02.305Z,17.20
2023-04-15T17:00:31.200Z,16.02
2023-04-15T17:02:58.881Z,9.80
2023-04-15T17:05:27.734Z,17.63
2023-04-15T17:07:55.026Z,15.45
2023-04-15T17:10:21.974Z,5.38
2023-04-15T17:12:49.763Z,10.75
2023-04-15T17:15:16.629Z,6.15
2023-04-15T17:17:43.511Z,14.65
2023-04-15T17:20:11.215Z,7.50
2023-04-15T17:22:38.180Z,6.03
2023-04-15T17:25:05.414Z,4.93
2023-04-15T17:27:32.243Z,3.63
2023-04-15T17:29:59.053Z,4.82
2023-04-15T17:32:31.751Z,7.65
2023-04-15T17:34:58.810Z,17.75
2023-04-15T17:37:25.689Z,6.40
2023-04-15T17:39:52.713Z,5.47
2023-04-15T17:42:19.618Z,5.22
2023-04-15T17:44:46.380Z,4.15
2023-04-15T17:47:13.220Z,18.30
2023-04-15T17:49:40.041Z,4.55
2023-04-15T17:52:06.841Z,5.68
2023-04-15T17:54:33.999Z,15.27
2023-04-15T17:57:01.382Z,8.13
2023-04-15T17:59:28.195Z,12.48
2023-04-15T18:01:55.546Z,7.32
2023-04-15T18:04:25.827Z,6.90
2023-04-15T18:09:20.348Z,8.10
2023-04-15T18:11:48.387Z,5.63
2023-04-15T18:14:26.644Z,13.25
2023-04-15T18:17:00.627Z,8.05
2023-04-15T18:19:27.826Z,18.75
2023-04-15T18:21:54.621Z,22.10
2023-04-15T18:24:22.145Z,22.30
2023-04-15T18:26:49.291Z,8.43
2023-04-15T18:29:16.405Z,12.02
2023-04-15T18:31:43.405Z,13.38
2023-04-15T18:34:10.272Z,8.95
2023-04-15T18:36:37.121Z,2.97
2023-04-15T18:39:04.451Z,4.65
2023-04-15T18:41:31.389Z,4.57
2023-04-15T18:43:58.164Z,15.95
2023-04-15T18:46:24.975Z,5.45
2023-04-15T18:48:51.746Z,4.10
2023-04-15T18:51:18.574Z,7.43
2023-04-15T18:53:45.629Z,10.57
2023-04-15T18:56:12.378Z,12.40
2023-04-15T18:59:18.426Z,2.75
2023-04-15T19:01:26.414Z,3.00
2023-04-15T19:03:53.333Z,1.05
2023-04-15T19:06:20.315Z,0.73
2023-04-15T19:08:47.417Z,6.97
2023-04-15T19:11:14.262Z,0.98
2023-04-15T19:13:41.082Z,0.80
2023-04-15T19:16:08.044Z,1.10
2023-04-15T19:18:34.867Z,1.40
2023-04-15T19:21:01.640Z,0.85
2023-04-15T19:23:28.513Z,1.08
2023-04-15T19:25:55.490Z,0.55
2023-04-15T19:28:22.280Z,0.73
2023-04-15T19:30:49.115Z,0.93
2023-04-15T19:33:16.031Z,1.23
2023-04-15T19:35:43.080Z,0.80
2023-04-15T19:38:09.896Z,1.23
2023-04-15T19:40:36.708Z,1.17
2023-04-15T19:43:03.624Z,1.30
2023-04-15T19:45:31.413Z,3.00
2023-04-15T19:47:58.246Z,0.73
2023-04-15T19:50:26.426Z,3.88
2023-04-15T19:52:53.711Z,2.75
2023-04-15T19:55:20.507Z,10.15
2023-04-15T19:57:47.547Z,1.08
2023-04-15T20:00:14.451Z,1.30
2023-04-15T20:02:41.365Z,1.40
2023-04-15T20:05:09.964Z,1.02
2023-04-15T20:07:36.966Z,0.80
2023-04-15T20:10:12.088Z,3.22
2023-04-15T20:12:51.087Z,1.65
2023-04-15T20:15:19.849Z,1.10
2023-04-15T20:17:46.740Z,2.40
2023-04-15T20:20:13.584Z,7.38
2023-04-15T20:22:41.052Z,2.25
2023-04-15T20:25:08.152Z,2.55
2023-04-15T20:27:35.072Z,7.63
2023-04-15T20:30:03.368Z,11.98
2023-04-15T20:32:32.744Z,3.47
2023-04-15T20:34:59.598Z,2.53
2023-04-15T20:37:26.349Z,3.45
2023-04-15T20:39:53.374Z,6.75
2023-04-15T20:42:20.275Z,2.00
2023-04-15T20:44:47.120Z,6.28
2023-04-15T20:47:14.004Z,1.95
2023-04-15T20:49:40.772Z,1.90
2023-04-15T20:52:07.909Z,2.13
2023-04-15T20:54:34.744Z,2.85
2023-04-15T20:57:01.774Z,2.45
2023-04-15T20:59:28.609Z,2.95
2023-04-15T21:01:57.108Z,10.13
2023-04-15T21:04:24.683Z,11.45
2023-04-15T21:06:52.340Z,11.10
2023-04-15T21:09:19.217Z,9.07
2023-04-15T21:12:00.571Z,3.80
2023-04-15T21:14:28.224Z,3.55
2023-04-15T21:16:55.356Z,3.88
2023-04-15T21:19:22.082Z,3.67
2023-04-15T21:21:48.828Z,4.20
2023-04-15T21:24:15.694Z,4.15
2023-04-15T21:26:42.566Z,3.83
2023-04-15T21:29:11.458Z,4.45
2023-04-15T21:31:38.763Z,3.78
2023-04-15T21:34:05.759Z,3.75
2023-04-15T21:36:32.605Z,4.13
2023-04-15T21:38:59.527Z,3.65
2023-04-15T21:41:26.725Z,9.40
2023-04-15T21:43:53.714Z,4.40
2023-04-15T21:46:23.469Z,3.78
2023-04-15T21:48:53.172Z,2.97
2023-04-15T21:51:20.030Z,3.22
2023-04-15T21:53:46.738Z,3.13
2023-04-15T21:56:13.514Z,2.15
2023-04-15T21:58:40.447Z,2.38
2023-04-15T22:01:07.209Z,3.20
2023-04-15T22:03:34.644Z,3.53
2023-04-15T22:06:04.622Z,3.15
2023-04-15T22:08:38.752Z,2.67
2023-04-15T22:11:20.982Z,2.67
2023-04-15T22:13:47.773Z,2.70
2023-04-15T22:16:14.646Z,3.17
2023-04-15T22:18:41.501Z,3.05
2023-04-15T22:21:08.523Z,2.97
2023-04-15T22:23:35.311Z,3.33
2023-04-15T22:26:02.195Z,3.25
2023-04-15T22:28:29.038Z,4.45
2023-04-15T22:30:57.923Z,4.13
2023-04-15T22:33:24.747Z,4.70
2023-04-15T22:35:51.552Z,3.67
2023-04-15T22:38:18.330Z,3.65
2023-04-15T22:40:46.387Z,3.63
2023-04-15T22:43:13.184Z,4.28
2023-04-15T22:45:39.934Z,3.40
2023-04-15T22:48:06.817Z,3.22
2023-04-15T22:50:33.668Z,4.55
2023-04-15T22:53:00.601Z,3.67
2023-04-15T22:55:27.499Z,4.00
2023-04-15T22:57:54.353Z,3.35
2023-04-15T23:00:21.150Z,4.78
2023-04-15T23:02:47.955Z,5.63
2023-04-15T23:05:14.843Z,4.63
2023-04-15T23:07:41.738Z,5.05
2023-04-15T23:10:09.089Z,4.55
2023-04-15T23:12:36.031Z,3.00
2023-04-15T23:15:03.621Z,3.47
2023-04-15T23:17:30.489Z,3.90
2023-04-15T23:19:57.332Z,4.15
2023-04-15T23:22:24.151Z,3.92
2023-04-15T23:24:51.139Z,4.22
2023-04-15T23:27:19.080Z,4.15
2023-04-15T23:29:46.102Z,3.78
2023-04-15T23:32:12.920Z,3.80
2023-04-15T23:34:39.619Z,3.45
2023-04-15T23:37:06.385Z,2.63
2023-04-15T23:39:33.213Z,3.50
2023-04-15T23:41:59.972Z,3.10
2023-04-15T23:44:27.058Z,4.38
2023-04-15T23:46:53.882Z,3.63
2023-04-15T23:49:20.784Z,3.08
2023-04-15T23:51:47.541Z,2.72
2023-04-15T23:54:14.899Z,3.72
2023-04-15T23:56:41.720Z,4.90
2023-04-15T23:59:08.998Z,3.83
